Litchfield, Ohio
Current Conditions -  °F | °C
As of 9:53 AM on Thursday 23 Oct 2014 (Local Time) from KLPR Reporting Station
Scattered Clouds Scattered Clouds  
Wind Chill: 51°   Ceiling: Unl
Heat Index: 51°   Visibility: 10mi
Dew Point: 45°   Wind: 6mph
Humidity: 80%   Direction: 10°N
Pressure: 30.22"   Gusts: NA
Location:  41.17°N, 82.02°W
Report Text: KLPR 231353Z AUTO 01005KT 10SM SCT014 11/07 A3022 RMK AO2 SLP235 T01060072 TSNO $
Loading
Personal Weather Stations






























Interactive Weather Map
Tropical Storm Tracking
New forecast layout! Learn more

10-Day Weather Forecast

Advertisements
Track Severe Weather on mobile